ΕΜΥ, Εθνική Μετεωρολογική Υπηρεσία - Δελτία Καιρού, Προγνώσεις

ΑΕΡΟΝΑΥΤΙΛΙΑ

GREEK AIRPORTS CODES

LGMG 271400Z 30012G30KT 200V330 9999 FEW025 17/12 Q1007 RMK SCT080 BKN180=

EUROPEAN AIRPORTS CODES

EKCH 271420Z 16006KT 9999 SCT013 BKN043 03/01 Q0997 NOSIGTEMPO 4000 SHRASN BKN012 SCT020CB=